createdAt,value
2023-07-10T00:01:30.654Z,8.30
2023-07-10T00:03:57.693Z,8.57
2023-07-10T00:06:24.756Z,8.73
2023-07-10T00:08:51.623Z,8.10
2023-07-10T00:11:22.855Z,7.65
2023-07-10T00:13:49.684Z,7.45
2023-07-10T00:16:21.055Z,8.80
2023-07-10T00:18:49.189Z,7.75
2023-07-10T00:21:16.744Z,7.82
2023-07-10T00:23:43.479Z,8.02
2023-07-10T00:26:24.902Z,7.45
2023-07-10T00:28:55.024Z,8.02
2023-07-10T00:31:22.369Z,7.75
2023-07-10T00:33:49.285Z,7.60
2023-07-10T00:36:30.262Z,7.78
2023-07-10T00:39:00.754Z,7.22
2023-07-10T00:41:33.512Z,7.55
2023-07-10T00:44:04.682Z,8.20
2023-07-10T00:46:46.378Z,7.68
2023-07-10T00:49:23.933Z,8.05
2023-07-10T00:52:13.242Z,7.45
2023-07-10T00:54:45.695Z,7.70
2023-07-10T00:57:17.820Z,7.10
2023-07-10T00:59:45.475Z,7.50
2023-07-10T01:02:15.056Z,8.25
2023-07-10T01:04:43.899Z,8.13
2023-07-10T01:07:16.864Z,8.35
2023-07-10T01:09:50.300Z,7.80
2023-07-10T01:12:17.853Z,8.05
2023-07-10T01:14:44.616Z,7.13
2023-07-10T01:17:12.121Z,7.38
2023-07-10T01:19:40.708Z,7.93
2023-07-10T01:22:11.112Z,8.35
2023-07-10T01:24:38.822Z,7.60
2023-07-10T01:27:12.797Z,8.13
2023-07-10T01:29:44.280Z,7.85
2023-07-10T01:32:18.047Z,7.85
2023-07-10T01:34:54.386Z,7.82
2023-07-10T01:37:21.242Z,8.30
2023-07-10T01:39:51.425Z,7.95
2023-07-10T01:42:18.334Z,7.97
2023-07-10T01:44:47.315Z,7.75
2023-07-10T01:47:15.711Z,8.18
2023-07-10T01:49:44.355Z,8.27
2023-07-10T01:52:13.948Z,7.30
2023-07-10T01:54:41.316Z,8.50
2023-07-10T01:57:10.303Z,8.35
2023-07-10T01:59:37.059Z,8.35
2023-07-10T02:02:05.802Z,8.63
2023-07-10T02:04:33.230Z,9.45
2023-07-10T02:07:00.147Z,8.50
2023-07-10T02:09:29.363Z,8.98
2023-07-10T02:11:56.360Z,8.80
2023-07-10T02:14:24.134Z,8.73
2023-07-10T02:16:51.290Z,9.18
2023-07-10T02:19:20.104Z,8.75
2023-07-10T02:21:47.925Z,9.15
2023-07-10T02:24:14.836Z,9.50
2023-07-10T02:26:41.873Z,9.25
2023-07-10T02:29:08.792Z,8.70
2023-07-10T02:31:35.717Z,8.43
2023-07-10T02:34:02.637Z,7.95
2023-07-10T02:36:29.989Z,8.52
2023-07-10T02:38:57.197Z,7.95
2023-07-10T02:41:24.377Z,8.10
2023-07-10T02:43:51.135Z,8.73
2023-07-10T02:46:17.958Z,8.95
2023-07-10T02:48:44.806Z,8.85
2023-07-10T02:51:11.614Z,8.63
2023-07-10T02:53:39.240Z,8.77
2023-07-10T02:56:06.205Z,8.43
2023-07-10T02:58:33.375Z,8.02
2023-07-10T03:01:02.527Z,7.72
2023-07-10T03:03:29.323Z,7.90
2023-07-10T03:05:58.420Z,8.23
2023-07-10T03:08:25.215Z,7.40
2023-07-10T03:11:07.117Z,8.38
2023-07-10T03:13:34.551Z,7.68
2023-07-10T03:16:04.884Z,7.05
2023-07-10T03:18:32.050Z,7.30
2023-07-10T03:20:58.809Z,7.70
2023-07-10T03:23:25.845Z,7.78
2023-07-10T03:25:53.160Z,8.15
2023-07-10T03:28:20.067Z,8.10
2023-07-10T03:30:47.271Z,8.15
2023-07-10T03:33:15.865Z,7.72
2023-07-10T03:35:43.301Z,7.82
2023-07-10T03:38:10.502Z,8.35
2023-07-10T03:40:37.445Z,8.20
2023-07-10T03:43:04.253Z,8.02
2023-07-10T03:45:32.276Z,8.05
2023-07-10T03:47:59.154Z,8.63
2023-07-10T03:50:26.010Z,8.05
2023-07-10T03:52:52.815Z,7.53
2023-07-10T03:55:19.694Z,9.05
2023-07-10T03:57:46.422Z,8.18
2023-07-10T04:00:13.736Z,9.18
2023-07-10T04:02:40.639Z,9.13
2023-07-10T04:05:07.577Z,8.43
2023-07-10T04:07:34.333Z,9.20
2023-07-10T04:10:01.233Z,8.80
2023-07-10T04:12:28.666Z,8.55
2023-07-10T04:14:55.663Z,8.35
2023-07-10T04:17:22.594Z,8.65
2023-07-10T04:19:49.715Z,8.95
2023-07-10T04:22:16.510Z,8.73
2023-07-10T04:24:43.539Z,8.60
2023-07-10T04:27:10.706Z,8.05
2023-07-10T04:29:37.684Z,8.20
2023-07-10T04:32:04.626Z,8.60
2023-07-10T04:34:31.350Z,8.82
2023-07-10T04:36:58.106Z,8.70
2023-07-10T04:39:24.908Z,8.60
2023-07-10T04:41:51.618Z,8.18
2023-07-10T04:44:18.428Z,8.15
2023-07-10T04:46:45.304Z,8.43
2023-07-10T04:49:12.123Z,8.15
2023-07-10T04:51:38.930Z,8.25
2023-07-10T04:54:05.980Z,8.60
2023-07-10T04:56:32.749Z,8.32
2023-07-10T04:58:59.867Z,8.27
2023-07-10T05:01:29.729Z,8.95
2023-07-10T05:03:58.408Z,8.57
2023-07-10T05:06:25.272Z,8.48
2023-07-10T05:08:56.820Z,7.63
2023-07-10T05:11:26.000Z,8.23
2023-07-10T05:13:52.822Z,7.72
2023-07-10T05:16:20.247Z,8.05
2023-07-10T05:18:47.052Z,8.27
2023-07-10T05:21:13.766Z,7.95
2023-07-10T05:23:40.645Z,7.97
2023-07-10T05:26:10.801Z,6.95
2023-07-10T05:28:38.321Z,7.07
2023-07-10T05:31:07.682Z,6.85
2023-07-10T05:33:34.856Z,7.10
2023-07-10T05:36:05.158Z,7.03
2023-07-10T05:38:34.574Z,6.20
2023-07-10T05:41:02.348Z,6.30
2023-07-10T05:43:33.296Z,7.07
2023-07-10T05:46:00.751Z,6.47
2023-07-10T05:48:28.453Z,6.78
2023-07-10T05:50:55.261Z,7.00
2023-07-10T05:53:22.958Z,6.75
2023-07-10T05:55:51.798Z,6.28
2023-07-10T05:58:20.657Z,6.72
2023-07-10T06:00:49.320Z,6.22
2023-07-10T06:03:16.457Z,6.75
2023-07-10T06:05:43.194Z,6.75
2023-07-10T06:08:11.777Z,7.50
2023-07-10T06:10:38.675Z,7.18
2023-07-10T06:13:05.474Z,6.10
2023-07-10T06:15:33.211Z,6.75
2023-07-10T06:18:00.035Z,6.80
2023-07-10T06:20:27.516Z,6.30
2023-07-10T06:22:54.360Z,7.10
2023-07-10T06:25:21.122Z,8.45
2023-07-10T06:27:49.484Z,6.70
2023-07-10T06:30:17.978Z,6.70
2023-07-10T06:32:44.785Z,5.85
2023-07-10T06:35:14.625Z,5.97
2023-07-10T06:37:42.263Z,5.82
2023-07-10T06:40:13.297Z,6.15
2023-07-10T06:42:41.099Z,6.15
2023-07-10T06:45:09.064Z,6.28
2023-07-10T06:47:43.785Z,6.20
2023-07-10T06:50:12.785Z,6.82
2023-07-10T06:52:42.669Z,6.22
2023-07-10T06:55:13.701Z,6.55
2023-07-10T06:57:40.558Z,5.90
2023-07-10T07:00:09.705Z,5.78
2023-07-10T07:02:37.264Z,6.10
2023-07-10T07:05:08.642Z,6.63
2023-07-10T07:07:36.968Z,7.00
2023-07-10T07:10:05.210Z,6.80
2023-07-10T07:12:32.042Z,5.90
2023-07-10T07:14:58.769Z,6.22
2023-07-10T07:17:25.538Z,6.18
2023-07-10T07:19:52.385Z,5.85
2023-07-10T07:22:19.155Z,6.03
2023-07-10T07:24:45.975Z,5.95
2023-07-10T07:27:12.777Z,6.00
2023-07-10T07:29:39.640Z,6.22
2023-07-10T07:32:06.959Z,5.80
2023-07-10T07:34:33.749Z,7.18
2023-07-10T07:37:00.475Z,5.82
2023-07-10T07:39:32.162Z,6.57
2023-07-10T07:41:59.832Z,6.32
2023-07-10T07:44:26.863Z,5.80
2023-07-10T07:46:53.741Z,6.40
2023-07-10T07:49:23.023Z,6.60
2023-07-10T07:51:49.773Z,5.90
2023-07-10T07:54:17.087Z,7.15
2023-07-10T07:56:43.897Z,5.95
2023-07-10T07:59:11.107Z,5.80
2023-07-10T08:01:38.071Z,7.00
2023-07-10T08:04:05.188Z,6.15
2023-07-10T08:06:34.140Z,6.28
2023-07-10T08:09:01.635Z,5.93
2023-07-10T08:11:28.418Z,6.47
2023-07-10T08:13:55.242Z,6.10
2023-07-10T08:16:22.399Z,6.80
2023-07-10T08:18:50.046Z,6.28
2023-07-10T08:21:17.067Z,5.78
2023-07-10T08:23:43.900Z,6.00
2023-07-10T08:26:10.659Z,6.00
2023-07-10T08:28:37.469Z,5.75
2023-07-10T08:31:04.347Z,6.50
2023-07-10T08:33:31.161Z,6.05
2023-07-10T08:36:06.664Z,6.70
2023-07-10T08:38:35.902Z,5.85
2023-07-10T08:41:14.047Z,6.93
2023-07-10T08:43:42.602Z,5.80
2023-07-10T08:46:16.728Z,5.82
2023-07-10T08:48:55.097Z,6.43
2023-07-10T08:51:21.862Z,6.97
2023-07-10T08:54:13.034Z,7.50
2023-07-10T08:56:50.941Z,6.07
2023-07-10T09:00:01.952Z,9.63
2023-07-10T09:02:46.246Z,8.40
2023-07-10T09:05:34.980Z,6.43
2023-07-10T09:08:06.554Z,6.20
2023-07-10T09:10:40.915Z,6.40
2023-07-10T09:13:14.039Z,6.45
2023-07-10T09:15:57.030Z,6.60
2023-07-10T09:18:44.172Z,6.53
2023-07-10T09:21:20.795Z,6.78
2023-07-10T09:23:48.828Z,6.65
2023-07-10T09:26:21.500Z,7.38
2023-07-10T09:29:17.409Z,6.43
2023-07-10T09:32:07.998Z,6.32
2023-07-10T09:34:36.193Z,6.93
2023-07-10T09:37:06.740Z,6.88
2023-07-10T09:39:34.173Z,6.75
2023-07-10T09:42:02.745Z,6.72
2023-07-10T09:44:39.261Z,7.00
2023-07-10T09:47:11.511Z,9.50
2023-07-10T09:49:47.413Z,8.15
2023-07-10T09:52:26.758Z,8.55
2023-07-10T09:55:15.516Z,9.15
2023-07-10T09:58:04.230Z,8.80
2023-07-10T10:00:34.433Z,9.50
2023-07-10T10:03:17.828Z,10.50
2023-07-10T10:05:53.327Z,7.80
2023-07-10T10:08:25.135Z,9.73
2023-07-10T10:11:09.874Z,8.57
2023-07-10T10:13:50.098Z,9.43
2023-07-10T10:16:26.001Z,8.65
2023-07-10T10:19:04.786Z,7.90
2023-07-10T10:21:36.515Z,8.50
2023-07-10T10:24:08.925Z,10.65
2023-07-10T10:27:13.580Z,10.77
2023-07-10T10:29:43.416Z,8.27
2023-07-10T10:32:19.985Z,11.23
2023-07-10T10:35:25.006Z,9.57
2023-07-10T10:38:05.523Z,9.32
2023-07-10T10:40:52.959Z,7.80
2023-07-10T10:43:34.773Z,8.25
2023-07-10T10:46:16.056Z,9.65
2023-07-10T10:49:04.674Z,9.18
2023-07-10T10:51:47.059Z,9.15
2023-07-10T10:54:34.260Z,7.68
2023-07-10T10:57:13.270Z,7.95
2023-07-10T10:59:51.956Z,10.13
2023-07-10T11:02:48.604Z,8.73
2023-07-10T11:05:37.216Z,10.52
2023-07-10T11:08:13.048Z,9.40
2023-07-10T11:10:42.808Z,8.30
2023-07-10T11:13:26.252Z,7.97
2023-07-10T11:15:53.119Z,8.60
2023-07-10T11:18:20.560Z,8.65
2023-07-10T11:20:47.500Z,8.65
2023-07-10T11:23:34.842Z,8.35
2023-07-10T11:26:04.113Z,9.43
2023-07-10T11:28:33.058Z,7.93
2023-07-10T11:31:32.867Z,8.70
2023-07-10T11:34:31.335Z,8.30
2023-07-10T11:36:59.332Z,7.80
2023-07-10T11:39:38.129Z,7.80
2023-07-10T11:42:06.962Z,7.32
2023-07-10T11:44:40.742Z,7.80
2023-07-10T11:47:08.764Z,7.20
2023-07-10T11:49:41.847Z,7.55
2023-07-10T11:52:14.658Z,7.13
2023-07-10T11:54:48.702Z,6.57
2023-07-10T11:57:30.098Z,7.05
2023-07-10T12:00:02.401Z,6.75
2023-07-10T12:02:46.206Z,7.00
2023-07-10T12:05:21.996Z,7.47
2023-07-10T12:07:56.346Z,8.32
2023-07-10T12:10:27.121Z,6.35
2023-07-10T12:12:55.578Z,7.32
2023-07-10T12:15:22.600Z,7.55
2023-07-10T12:17:54.370Z,6.70
2023-07-10T12:20:28.252Z,6.75
2023-07-10T12:22:57.005Z,7.18
2023-07-10T12:25:23.948Z,7.18
2023-07-10T12:30:27.599Z,6.93
2023-07-10T12:32:56.910Z,7.50
2023-07-10T12:35:37.144Z,7.03
2023-07-10T12:38:09.180Z,7.10
2023-07-10T12:40:37.444Z,6.32
2023-07-10T12:43:22.704Z,6.47
2023-07-10T12:45:57.848Z,6.88
2023-07-10T12:49:03.863Z,6.95
2023-07-10T12:52:10.517Z,7.07
2023-07-10T12:55:21.187Z,6.07
2023-07-10T12:58:36.201Z,7.22
2023-07-10T13:06:27.118Z,6.55
2023-07-10T13:12:22.616Z,6.57
2023-07-10T13:14:51.505Z,6.30
2023-07-10T13:17:23.600Z,6.55
2023-07-10T13:20:09.813Z,6.28
2023-07-10T13:22:45.109Z,7.00
2023-07-10T13:25:13.112Z,6.20
2023-07-10T13:27:41.729Z,6.75
2023-07-10T13:30:20.053Z,6.60
2023-07-10T13:32:48.016Z,6.72
2023-07-10T13:35:24.046Z,6.40
2023-07-10T13:37:51.079Z,6.50
2023-07-10T13:40:29.079Z,5.93
2023-07-10T13:42:56.231Z,6.10
2023-07-10T13:45:25.542Z,5.55
2023-07-10T13:48:01.656Z,5.80
2023-07-10T13:50:55.592Z,5.88
2023-07-10T13:57:29.822Z,6.22
2023-07-10T14:00:26.602Z,5.78
2023-07-10T14:02:56.612Z,6.35
2023-07-10T14:05:53.103Z,6.55
2023-07-10T14:08:37.730Z,5.53
2023-07-10T14:11:05.305Z,5.50
2023-07-10T14:13:35.348Z,5.70
2023-07-10T14:16:17.070Z,5.45
2023-07-10T14:18:47.160Z,5.50
2023-07-10T14:21:30.989Z,5.65
2023-07-10T14:23:58.196Z,5.45
2023-07-10T14:26:27.910Z,5.43
2023-07-10T14:28:59.587Z,5.60
2023-07-10T14:31:29.603Z,5.75
2023-07-10T14:33:59.222Z,5.72
2023-07-10T14:36:27.990Z,5.25
2023-07-10T14:39:02.019Z,5.55
2023-07-10T14:41:29.961Z,4.80
2023-07-10T14:44:01.739Z,5.15
2023-07-10T14:46:36.933Z,5.38
2023-07-10T14:49:17.652Z,4.97
2023-07-10T15:05:25.085Z,5.30
2023-07-10T15:07:59.369Z,5.95
2023-07-10T15:10:38.925Z,5.78
2023-07-10T15:13:16.658Z,4.90
2023-07-10T15:16:04.567Z,5.75
2023-07-10T15:18:58.453Z,5.78
2023-07-10T15:24:55.830Z,5.55
2023-07-10T15:27:34.789Z,6.57
2023-07-10T15:30:01.811Z,5.00
2023-07-10T15:33:15.499Z,5.25
2023-07-10T15:35:58.045Z,4.90
2023-07-10T15:38:37.045Z,5.10
2023-07-10T15:41:12.618Z,4.90
2023-07-10T15:43:46.290Z,5.00
2023-07-10T15:46:14.716Z,4.80
2023-07-10T15:48:51.861Z,4.40
2023-07-10T15:51:27.221Z,4.25
2023-07-10T15:54:08.823Z,4.47
2023-07-10T15:56:35.983Z,4.60
2023-07-10T15:59:25.642Z,4.45
2023-07-10T16:02:03.106Z,4.50
2023-07-10T16:08:19.204Z,5.22
2023-07-10T16:11:16.482Z,4.32
2023-07-10T16:14:19.799Z,4.47
2023-07-10T16:16:50.104Z,4.22
2023-07-10T16:19:19.853Z,4.15
2023-07-10T16:21:55.305Z,5.00
2023-07-10T16:24:22.463Z,5.35
2023-07-10T16:26:50.574Z,3.97
2023-07-10T16:29:17.898Z,4.30
2023-07-10T16:31:49.722Z,3.97
2023-07-10T16:34:26.071Z,4.03
2023-07-10T16:37:18.047Z,4.53
2023-07-10T16:39:56.983Z,5.70
2023-07-10T16:42:37.741Z,5.30
2023-07-10T16:45:35.660Z,5.78
2023-07-10T16:48:32.533Z,5.80
2023-07-10T16:51:04.634Z,5.43
2023-07-10T16:53:41.950Z,5.50
2023-07-10T16:56:12.874Z,5.88
2023-07-10T16:58:40.028Z,5.82
2023-07-10T17:01:21.250Z,6.25
2023-07-10T17:03:51.240Z,4.95
2023-07-10T17:06:23.532Z,5.13
2023-07-10T17:08:51.477Z,5.30
2023-07-10T17:11:32.037Z,5.65
2023-07-10T17:14:00.416Z,5.57
2023-07-10T17:16:27.499Z,5.50
2023-07-10T17:18:54.573Z,5.70
2023-07-10T17:21:24.744Z,4.97
2023-07-10T17:23:53.077Z,5.07
2023-07-10T17:26:21.751Z,5.15
2023-07-10T17:28:49.755Z,5.18
2023-07-10T17:31:32.327Z,4.80
2023-07-10T17:34:01.608Z,5.45
2023-07-10T17:36:29.748Z,5.00
2023-07-10T17:39:12.459Z,5.10
2023-07-10T17:41:43.935Z,5.45
2023-07-10T17:44:37.347Z,5.22
2023-07-10T17:47:04.687Z,5.60
2023-07-10T17:49:33.383Z,5.47
2023-07-10T17:52:01.356Z,5.80
2023-07-10T17:54:29.544Z,5.47
2023-07-10T17:57:05.730Z,5.43
2023-07-10T17:59:36.434Z,5.05
2023-07-10T18:02:04.288Z,5.13
2023-07-10T18:04:42.200Z,5.32
2023-07-10T18:07:13.252Z,5.68
2023-07-10T18:10:02.962Z,5.45
2023-07-10T18:12:43.364Z,5.10
2023-07-10T18:15:21.700Z,5.28
2023-07-10T18:17:59.814Z,5.03
2023-07-10T18:20:39.181Z,9.20
2023-07-10T18:23:22.725Z,7.28
2023-07-10T18:25:53.236Z,6.18
2023-07-10T18:28:27.674Z,5.65
2023-07-10T18:31:01.332Z,5.85
2023-07-10T18:33:30.292Z,4.90
2023-07-10T18:35:57.992Z,5.10
2023-07-10T18:38:28.289Z,5.75
2023-07-10T18:40:57.835Z,5.45
2023-07-10T18:43:34.316Z,5.60
2023-07-10T18:46:01.401Z,5.53
2023-07-10T18:48:31.111Z,5.50
2023-07-10T18:51:05.202Z,5.63
2023-07-10T18:53:32.999Z,6.30
2023-07-10T18:56:00.060Z,5.75
2023-07-10T18:58:29.346Z,5.25
2023-07-10T19:00:57.759Z,5.43
2023-07-10T19:03:25.433Z,4.90
2023-07-10T19:05:54.504Z,5.78
2023-07-10T19:08:26.653Z,5.55
2023-07-10T19:10:53.634Z,7.22
2023-07-10T19:13:26.416Z,5.72
2023-07-10T19:15:59.726Z,7.03
2023-07-10T19:18:32.855Z,8.70
2023-07-10T19:21:00.198Z,7.68
2023-07-10T19:23:30.083Z,7.50
2023-07-10T19:25:57.507Z,7.30
2023-07-10T19:28:27.409Z,6.25
2023-07-10T19:30:58.931Z,6.70
2023-07-10T19:33:32.694Z,6.13
2023-07-10T19:35:59.998Z,6.40
2023-07-10T19:38:32.899Z,6.53
2023-07-10T19:41:01.303Z,7.00
2023-07-10T19:43:28.259Z,6.68
2023-07-10T19:45:56.807Z,6.80
2023-07-10T19:48:27.320Z,7.13
2023-07-10T19:50:54.298Z,6.45
2023-07-10T19:53:33.192Z,7.65
2023-07-10T19:56:01.873Z,8.65
2023-07-10T19:58:31.726Z,7.53
2023-07-10T20:00:59.991Z,7.28
2023-07-10T20:03:30.276Z,10.85
2023-07-10T20:05:57.758Z,7.57
2023-07-10T20:08:32.392Z,7.20
2023-07-10T20:11:00.508Z,6.97
2023-07-10T20:13:29.123Z,6.93
2023-07-10T20:15:59.842Z,6.85
2023-07-10T20:18:30.290Z,6.47
2023-07-10T20:20:58.267Z,6.28
2023-07-10T20:23:28.283Z,7.32
2023-07-10T20:26:00.862Z,7.70
2023-07-10T20:28:36.519Z,7.10
2023-07-10T20:31:04.611Z,7.00
2023-07-10T20:33:34.453Z,6.65
2023-07-10T20:36:04.518Z,6.65
2023-07-10T20:38:40.555Z,6.57
2023-07-10T20:41:16.110Z,6.50
2023-07-10T20:43:43.385Z,6.68
2023-07-10T20:46:18.444Z,6.28
2023-07-10T20:51:21.832Z,6.07
2023-07-10T20:53:51.569Z,6.60
2023-07-10T20:56:30.349Z,6.55
2023-07-10T20:59:02.391Z,7.47
2023-07-10T21:01:31.452Z,7.18
2023-07-10T21:03:59.002Z,7.10
2023-07-10T21:06:34.402Z,6.43
2023-07-10T21:09:03.415Z,6.75
2023-07-10T21:11:35.973Z,6.40
2023-07-10T21:14:02.906Z,6.15
2023-07-10T21:16:33.649Z,5.90
2023-07-10T21:19:16.677Z,5.55
2023-07-10T21:21:43.617Z,6.18
2023-07-10T21:24:18.941Z,5.65
2023-07-10T21:26:58.869Z,5.72
2023-07-10T21:29:26.183Z,5.85
2023-07-10T21:31:53.070Z,5.90
2023-07-10T21:34:20.477Z,5.53
2023-07-10T21:36:47.392Z,5.10
2023-07-10T21:39:14.258Z,5.20
2023-07-10T21:41:43.100Z,5.65
2023-07-10T21:44:23.118Z,5.68
2023-07-10T21:46:50.983Z,5.50
2023-07-10T21:49:18.604Z,5.00
2023-07-10T21:51:45.866Z,5.32
2023-07-10T21:54:13.361Z,5.38
2023-07-10T21:56:43.935Z,5.47
2023-07-10T21:59:24.223Z,5.10
2023-07-10T22:01:51.286Z,4.88
2023-07-10T22:04:18.239Z,6.32
2023-07-10T22:06:46.944Z,4.80
2023-07-10T22:09:14.740Z,4.40
2023-07-10T22:11:43.303Z,4.47
2023-07-10T22:14:18.367Z,4.82
2023-07-10T22:19:14.038Z,4.72
2023-07-10T22:21:42.061Z,3.92
2023-07-10T22:24:21.630Z,5.05
2023-07-10T22:26:48.599Z,4.40
2023-07-10T22:29:15.501Z,3.88
2023-07-10T22:31:44.795Z,5.25
2023-07-10T22:34:13.220Z,5.07
2023-07-10T22:36:40.046Z,4.25
2023-07-10T22:39:06.795Z,4.50
2023-07-10T22:41:35.568Z,4.03
2023-07-10T22:44:12.136Z,4.15
2023-07-10T22:46:41.039Z,4.65
2023-07-10T22:49:12.033Z,3.95
2023-07-10T22:51:39.343Z,4.40
2023-07-10T22:54:06.584Z,4.10
2023-07-10T22:56:41.413Z,4.35
2023-07-10T22:59:14.166Z,4.10
2023-07-10T23:01:41.022Z,4.00
2023-07-10T23:04:08.231Z,3.58
2023-07-10T23:06:35.422Z,4.18
2023-07-10T23:09:02.492Z,3.53
2023-07-10T23:11:29.415Z,3.65
2023-07-10T23:13:56.901Z,3.92
2023-07-10T23:16:27.482Z,4.38
2023-07-10T23:18:59.281Z,4.05
2023-07-10T23:21:27.850Z,4.57
2023-07-10T23:23:54.922Z,4.40
2023-07-10T23:26:23.353Z,4.20
2023-07-10T23:28:50.172Z,3.60
2023-07-10T23:31:22.682Z,5.50
2023-07-10T23:33:51.191Z,6.25
2023-07-10T23:36:19.940Z,5.55
2023-07-10T23:38:47.059Z,5.90
2023-07-10T23:41:14.854Z,6.07
2023-07-10T23:43:42.928Z,6.45
2023-07-10T23:46:10.734Z,5.10
2023-07-10T23:48:38.098Z,3.97
2023-07-10T23:51:05.258Z,3.95
2023-07-10T23:53:32.530Z,4.05
2023-07-10T23:55:59.731Z,4.40
2023-07-10T23:58:26.784Z,3.95
